Time;durP1;ratioP1;P1;durP2;ratioP2;P2;SDS_P1;SDS_P2;PMS_P1;PMS_P2;Temp;Humidity;BMP_temperature;BMP_pressure;BME280_temperature;BME280_humidity;BME280_pressure;Samples;Min_cycle;Max_cycle;Signal;HPM_P1;HPM_P2
2024/03/16 00:02:07;;;;;;;87.50;33.43;;;;;;;6.48;100.00;100834.54;125103;1099;104216;-80
2024/03/16 00:04:39;;;;;;;78.43;33.30;;;;;;;6.51;100.00;100836.44;125193;1097;104345;-80
2024/03/16 00:07:11;;;;;;;84.63;34.30;;;;;;;6.50;100.00;100838.16;124606;1098;104325;-80
2024/03/16 00:09:42;;;;;;;85.00;34.97;;;;;;;6.51;100.00;100839.93;124405;1099;102961;-80
2024/03/16 00:12:14;;;;;;;82.93;34.00;;;;;;;6.52;100.00;100843.45;124971;1099;104242;-79
2024/03/16 00:14:48;;;;;;;81.97;32.90;;;;;;;6.54;100.00;100842.72;124488;1099;104377;-80
2024/03/16 00:17:20;;;;;;;79.53;32.65;;;;;;;6.52;100.00;100839.13;124570;1099;104418;-79
2024/03/16 00:19:52;;;;;;;86.97;32.33;;;;;;;6.52;100.00;100835.64;124785;1099;104166;-79
2024/03/16 00:22:23;;;;;;;86.37;34.50;;;;;;;6.51;100.00;100844.27;124438;1099;104255;-83
2024/03/16 00:24:54;;;;;;;84.43;32.57;;;;;;;6.47;100.00;100837.98;124385;1099;104239;-80
2024/03/16 00:27:25;;;;;;;86.93;33.50;;;;;;;6.44;100.00;100841.30;124413;1099;104268;-79
2024/03/16 00:29:57;;;;;;;89.97;34.23;;;;;;;6.39;100.00;100837.53;124459;1098;104409;-79
2024/03/16 00:32:28;;;;;;;78.53;31.57;;;;;;;6.38;100.00;100840.05;124769;1099;104316;-80
2024/03/16 00:35:03;;;;;;;78.57;31.30;;;;;;;6.36;100.00;100846.86;124694;1099;104268;-81
2024/03/16 00:37:34;;;;;;;80.43;31.67;;;;;;;6.37;100.00;100839.13;124972;1099;104310;-79
2024/03/16 00:40:09;;;;;;;80.50;31.53;;;;;;;6.38;100.00;100846.16;125174;1097;104354;-80
2024/03/16 00:42:40;;;;;;;76.03;31.53;;;;;;;6.39;100.00;100841.83;125159;1099;104360;-80
2024/03/16 00:45:12;;;;;;;84.50;33.20;;;;;;;6.36;100.00;100842.57;124883;1099;104201;-79
2024/03/16 00:47:44;;;;;;;82.07;32.67;;;;;;;6.35;100.00;100835.55;124741;1098;104217;-79
2024/03/16 00:50:15;;;;;;;73.40;30.33;;;;;;;6.36;100.00;100837.36;124912;1099;104345;-79
2024/03/16 00:52:46;;;;;;;75.93;31.50;;;;;;;6.37;100.00;100833.03;124984;1099;104348;-80
2024/03/16 00:55:18;;;;;;;79.40;32.70;;;;;;;6.35;100.00;100835.55;124613;1099;104361;-79
2024/03/16 00:57:49;;;;;;;76.80;32.37;;;;;;;6.36;100.00;100834.75;124839;1099;104261;-79
2024/03/16 01:00:22;;;;;;;81.67;32.50;;;;;;;6.37;100.00;100830.42;124882;1099;102030;-79
2024/03/16 01:02:53;;;;;;;76.17;32.37;;;;;;;6.35;100.00;100835.55;124715;1099;104312;-80
2024/03/16 01:05:26;;;;;;;77.47;31.40;;;;;;;6.36;100.00;100839.97;125333;1099;104245;-80
2024/03/16 01:07:58;;;;;;;76.57;30.77;;;;;;;6.38;100.00;100840.05;124663;1099;104309;-79
2024/03/16 01:10:29;;;;;;;73.33;31.37;;;;;;;6.40;100.00;100841.03;125072;1099;110809;-79
2024/03/16 01:13:00;;;;;;;75.87;31.03;;;;;;;6.37;100.00;100839.13;124632;1099;104163;-80
2024/03/16 01:15:32;;;;;;;76.73;32.13;;;;;;;6.39;100.00;100828.80;125502;1097;104185;-79
2024/03/16 01:18:04;;;;;;;81.03;31.33;;;;;;;6.42;100.00;100831.58;125167;1099;104352;-79
2024/03/16 01:20:35;;;;;;;80.33;31.23;;;;;;;6.40;100.00;100830.61;124689;1099;104427;-80
2024/03/16 01:23:06;;;;;;;74.00;30.57;;;;;;;6.37;100.00;100838.25;124596;1099;104408;-79
2024/03/16 01:25:37;;;;;;;79.10;32.67;;;;;;;6.35;100.00;100830.34;125339;1099;104269;-79
2024/03/16 01:28:09;;;;;;;82.37;33.00;;;;;;;6.34;100.00;100828.53;125279;1098;104245;-80
2024/03/16 01:30:40;;;;;;;73.60;29.75;;;;;;;6.32;100.00;100830.16;125126;1099;104242;-79
2024/03/16 01:33:11;;;;;;;84.13;33.23;;;;;;;6.32;100.00;100824.06;124777;1099;104404;-80
2024/03/16 01:35:42;;;;;;;79.73;31.83;;;;;;;6.30;100.00;100824.86;125158;1099;104168;-79
2024/03/16 01:38:14;;;;;;;72.07;29.97;;;;;;;6.30;100.00;100826.58;125329;1099;102945;-80
2024/03/16 01:40:46;;;;;;;69.60;29.67;;;;;;;6.29;100.00;100825.69;125469;1099;104171;-80
2024/03/16 01:43:18;;;;;;;76.60;32.43;;;;;;;6.29;100.00;100825.69;125452;1099;104050;-80
2024/03/16 01:45:52;;;;;;;77.87;31.37;;;;;;;6.31;100.00;100828.38;125428;1099;104270;-80
2024/03/16 01:48:24;;;;;;;77.20;31.27;;;;;;;6.35;100.00;100835.55;124918;1099;104242;-80
2024/03/16 01:50:55;;;;;;;76.07;32.20;;;;;;;6.39;100.00;100827.11;125682;1099;103056;-80
2024/03/16 01:53:27;;;;;;;77.20;32.17;;;;;;;6.43;100.00;100839.48;125398;1099;104341;-80
2024/03/16 01:55:58;;;;;;;75.30;32.17;;;;;;;6.44;100.00;100832.59;125574;1099;102025;-81
2024/03/16 01:58:30;;;;;;;76.90;32.43;;;;;;;6.46;100.00;100839.66;125564;1099;104302;-80
2024/03/16 02:01:01;;;;;;;76.67;30.80;;;;;;;6.49;100.00;100833.74;125304;1099;104271;-80
2024/03/16 02:03:34;;;;;;;78.30;31.67;;;;;;;6.50;100.00;100837.23;125200;1099;102070;-81
2024/03/16 02:06:05;;;;;;;74.23;31.53;;;;;;;6.50;100.00;100832.02;125266;1098;102512;-80
2024/03/16 02:08:37;;;;;;;73.65;32.25;;;;;;;6.47;100.00;100831.05;125202;1099;104223;-80
2024/03/16 02:11:09;;;;;;;79.87;31.47;;;;;;;6.45;100.00;100837.89;125294;1099;104600;-81
2024/03/16 02:13:40;;;;;;;76.60;31.40;;;;;;;6.45;100.00;100840.50;125288;1099;104219;-80
2024/03/16 02:16:11;;;;;;;74.63;30.27;;;;;;;6.44;100.00;100838.69;125611;1098;104210;-80
2024/03/16 02:18:43;;;;;;;75.47;33.50;;;;;;;6.43;100.00;100834.27;125567;1099;104162;-80
2024/03/16 02:21:16;;;;;;;84.47;34.73;;;;;;;6.43;100.00;100833.39;125845;1098;104176;-80
2024/03/16 02:23:48;;;;;;;78.97;32.87;;;;;;;6.44;100.00;100838.69;126178;1098;104184;-78
2024/03/16 02:26:19;;;;;;;76.83;32.57;;;;;;;6.46;100.00;100837.06;126140;1099;104771;-77
2024/03/16 02:28:51;;;;;;;82.97;34.23;;;;;;;6.48;100.00;100838.06;126158;1098;102035;-77
2024/03/16 02:31:23;;;;;;;78.23;32.13;;;;;;;6.51;100.00;100841.66;126263;1099;102071;-77
2024/03/16 02:33:58;;;;;;;82.47;34.07;;;;;;;6.53;100.00;100832.20;126197;1099;104144;-78
2024/03/16 02:36:27;;;;;;;;;;;;;;;6.53;100.00;100842.62;126127;1099;104079;-77
2024/03/16 02:38:58;;;;;;;74.10;32.23;;;;;;;6.53;100.00;100842.62;125806;1099;102092;-77
2024/03/16 02:41:30;;;;;;;82.70;35.97;;;;;;;6.54;100.00;100847.93;126174;1098;101714;-78
2024/03/16 02:44:01;;;;;;;75.97;34.47;;;;;;;6.55;100.00;100839.31;126075;1099;104242;-78
2024/03/16 02:46:32;;;;;;;77.80;34.57;;;;;;;6.59;100.00;100846.51;125871;1099;104191;-78
2024/03/16 02:49:04;;;;;;;82.87;36.07;;;;;;;6.61;100.00;100847.48;125439;1099;104294;-77
2024/03/16 02:51:35;;;;;;;79.83;33.80;;;;;;;6.61;100.00;100843.98;125488;1099;104265;-77
2024/03/16 02:54:06;;;;;;;79.53;34.13;;;;;;;6.58;100.00;100843.81;125378;1098;104373;-78
2024/03/16 02:56:38;;;;;;;86.70;35.07;;;;;;;6.58;100.00;100843.81;125605;1098;104399;-77
2024/03/16 02:59:11;;;;;;;78.77;35.33;;;;;;;6.58;100.00;100851.63;125482;1099;104644;-77
2024/03/16 03:01:44;;;;;;;79.93;33.27;;;;;;;6.59;100.00;100850.80;125641;1099;102717;-78
2024/03/16 03:04:17;;;;;;;76.35;31.95;;;;;;;6.59;100.00;100853.41;125754;1098;104169;-78
2024/03/16 03:06:48;;;;;;;81.57;34.27;;;;;;;6.60;100.00;100852.61;126172;1099;104249;-79
2024/03/16 03:09:20;;;;;;;80.07;34.00;;;;;;;6.59;100.00;100850.80;125669;1099;104172;-81
2024/03/16 03:11:51;;;;;;;79.33;32.63;;;;;;;6.57;100.00;100858.53;126164;1099;102289;-80
2024/03/16 03:14:23;;;;;;;80.50;33.37;;;;;;;6.54;100.00;100858.36;126229;1099;104235;-80
2024/03/16 03:16:55;;;;;;;82.67;33.93;;;;;;;6.53;100.00;100861.80;126321;1099;104208;-80
2024/03/16 03:19:27;;;;;;;79.07;33.20;;;;;;;6.53;100.00;100866.09;126035;1099;102073;-80
2024/03/16 03:21:58;;;;;;;80.97;32.80;;;;;;;6.52;100.00;100859.99;126375;1098;102698;-80
2024/03/16 03:24:29;;;;;;;77.90;33.07;;;;;;;6.52;100.00;100864.31;126234;1099;104193;-80
2024/03/16 03:27:00;;;;;;;75.43;31.63;;;;;;;6.51;100.00;100867.72;126327;1098;104171;-80
2024/03/16 03:29:31;;;;;;;86.23;35.03;;;;;;;6.49;100.00;100865.03;125663;1099;102168;-80
2024/03/16 03:32:03;;;;;;;80.03;35.33;;;;;;;6.47;100.00;100864.05;125915;1099;104233;-80
2024/03/16 03:34:34;;;;;;;85.17;36.13;;;;;;;6.46;100.00;100868.34;126364;1099;104173;-80
2024/03/16 03:37:05;;;;;;;79.73;34.70;;;;;;;6.47;100.00;100870.16;126256;1098;104169;-79
2024/03/16 03:39:37;;;;;;;84.37;35.63;;;;;;;6.43;100.00;100862.06;125275;1099;104271;-80
2024/03/16 03:42:10;;;;;;;90.67;36.17;;;;;;;6.46;100.00;100868.34;126301;1099;104278;-80
2024/03/16 03:44:50;;;;;;;82.67;35.73;;;;;;;6.46;100.00;100870.06;126597;1099;102640;-80
2024/03/16 03:47:30;;;;;;;88.27;35.77;;;;;;;6.45;100.00;100863.96;126604;1099;104279;-80
2024/03/16 03:50:03;;;;;;;88.20;36.53;;;;;;;6.44;100.00;100861.27;126504;1098;104412;-79
2024/03/16 03:52:35;;;;;;;85.53;36.63;;;;;;;6.40;100.00;100857.56;126447;1099;104233;-80
2024/03/16 03:55:07;;;;;;;86.17;35.17;;;;;;;6.41;100.00;100869.80;125603;1099;104168;-78
2024/03/16 03:57:38;;;;;;;85.53;36.47;;;;;;;6.44;100.00;100866.48;126419;1098;104204;-77
2024/03/16 04:00:13;;;;;;;85.13;35.03;;;;;;;6.47;100.00;100862.33;126615;1099;102032;-77
2024/03/16 04:02:44;;;;;;;82.97;34.07;;;;;;;6.48;100.00;100864.14;126425;1099;104220;-77
2024/03/16 04:05:16;;;;;;;80.07;33.30;;;;;;;6.49;100.00;100870.23;126311;1098;104801;-77
2024/03/16 04:07:47;;;;;;;80.97;33.37;;;;;;;6.51;100.00;100872.94;125997;1099;104233;-77
2024/03/16 04:10:18;;;;;;;85.10;34.07;;;;;;;6.50;100.00;100871.13;126225;1099;104242;-77
2024/03/16 04:12:50;;;;;;;80.77;34.07;;;;;;;6.50;100.00;100873.73;126091;1099;104386;-77
2024/03/16 04:15:21;;;;;;;86.50;34.20;;;;;;;6.47;100.00;100875.37;125155;1099;102274;-77
2024/03/16 04:17:52;;;;;;;79.43;33.70;;;;;;;6.43;100.00;100870.77;125402;1099;102033;-77
2024/03/16 04:20:24;;;;;;;86.03;33.93;;;;;;;6.44;100.00;100875.19;126270;1098;104166;-77
2024/03/16 04:22:55;;;;;;;81.00;32.57;;;;;;;6.46;100.00;100886.59;126022;1099;104268;-77
2024/03/16 04:25:27;;;;;;;83.17;33.27;;;;;;;6.44;100.00;100885.62;126624;1099;104095;-78
2024/03/16 04:27:58;;;;;;;86.00;33.83;;;;;;;6.44;100.00;100887.33;126549;1099;104162;-78
2024/03/16 04:30:29;;;;;;;83.13;33.27;;;;;;;6.44;100.00;100892.55;126506;1099;104198;-78
2024/03/16 04:33:00;;;;;;;79.67;31.40;;;;;;;6.44;100.00;100892.55;126083;1099;104274;-77
2024/03/16 04:35:32;;;;;;;87.17;34.93;;;;;;;6.43;100.00;100891.63;125746;1099;102073;-77
2024/03/16 04:38:03;;;;;;;85.00;33.43;;;;;;;6.44;100.00;100895.16;126263;1098;102468;-77
2024/03/16 04:40:35;;;;;;;82.47;32.30;;;;;;;6.45;100.00;100895.24;126708;1099;104197;-78
2024/03/16 04:43:06;;;;;;;83.53;33.30;;;;;;;6.47;100.00;100893.61;126533;1099;104241;-77
2024/03/16 04:45:37;;;;;;;90.90;34.40;;;;;;;6.47;100.00;100898.83;126439;1099;104677;-77
2024/03/16 04:48:10;;;;;;;79.53;33.30;;;;;;;6.47;100.00;100896.22;126368;1098;104242;-77
2024/03/16 04:50:41;;;;;;;91.00;33.43;;;;;;;6.49;100.00;100901.53;126326;1099;104354;-77
2024/03/16 04:53:12;;;;;;;85.55;32.65;;;;;;;6.51;100.00;100899.01;126242;1099;104323;-77
2024/03/16 04:55:45;;;;;;;90.97;34.92;;;;;;;6.52;100.00;100904.31;126505;1099;104245;-78
2024/03/16 04:58:17;;;;;;;93.10;33.93;;;;;;;6.53;100.00;100907.81;126017;1099;102073;-78
2024/03/16 05:00:48;;;;;;;83.77;33.87;;;;;;;6.56;100.00;100902.77;126013;1099;104146;-77
2024/03/16 05:03:20;;;;;;;83.97;33.93;;;;;;;6.58;100.00;100898.57;126028;1099;104291;-77
2024/03/16 05:05:54;;;;;;;80.33;32.40;;;;;;;6.58;100.00;100903.78;126225;1099;104246;-77
2024/03/16 05:08:25;;;;;;;89.03;32.63;;;;;;;6.57;100.00;100902.86;125664;1099;104095;-77
2024/03/16 05:10:58;;;;;;;89.00;32.93;;;;;;;6.59;100.00;100898.66;125458;1099;104322;-77
2024/03/16 05:13:30;;;;;;;85.60;33.23;;;;;;;6.61;100.00;100898.75;126450;1099;104236;-77
2024/03/16 05:16:07;;;;;;;86.23;33.57;;;;;;;6.63;100.00;100907.55;125863;1098;104211;-77
2024/03/16 05:18:38;;;;;;;85.40;32.87;;;;;;;6.61;100.00;100903.96;125793;1099;104348;-77
2024/03/16 05:21:12;;;;;;;90.13;35.10;;;;;;;6.59;100.00;100909.09;125654;1099;104293;-78
2024/03/16 05:23:45;;;;;;;94.70;34.48;;;;;;;6.57;100.00;100905.47;125636;1099;104259;-78
2024/03/16 05:26:16;;;;;;;92.67;34.27;;;;;;;6.56;100.00;100911.52;125601;1099;103308;-78
2024/03/16 05:28:47;;;;;;;90.27;34.17;;;;;;;6.54;100.00;100915.72;125547;1099;102868;-78
2024/03/16 05:31:19;;;;;;;89.57;33.80;;;;;;;6.57;100.00;100917.62;126299;1099;104083;-78
2024/03/16 05:33:50;;;;;;;89.17;34.93;;;;;;;6.59;100.00;100910.77;125774;1099;102060;-78
2024/03/16 05:36:22;;;;;;;87.60;33.57;;;;;;;6.64;100.00;100910.24;126363;1099;102292;-78
2024/03/16 05:38:53;;;;;;;86.57;34.97;;;;;;;6.71;100.00;100914.09;126362;1099;102169;-79
2024/03/16 05:41:25;;;;;;;92.03;34.00;;;;;;;6.75;100.00;100913.47;126280;1099;104187;-82
2024/03/16 05:43:56;;;;;;;91.17;34.60;;;;;;;6.79;100.00;100911.93;125862;1099;104242;-78
2024/03/16 05:46:27;;;;;;;91.17;36.23;;;;;;;6.82;100.00;100915.64;126390;1099;104242;-78
2024/03/16 05:48:58;;;;;;;93.43;34.90;;;;;;;6.88;100.00;100917.67;126112;1099;102283;-78
2024/03/16 05:51:30;;;;;;;93.73;34.27;;;;;;;6.92;100.00;100918.73;126620;1099;104176;-78
2024/03/16 05:54:04;;;;;;;93.55;33.40;;;;;;;6.93;100.00;100925.77;126341;1098;102445;-78
2024/03/16 05:56:36;;;;;;;96.70;34.10;;;;;;;6.94;100.00;100923.25;126501;1099;102115;-78
2024/03/16 05:59:09;;;;;;;91.97;34.00;;;;;;;6.97;100.00;100927.75;126475;1099;104159;-78
2024/03/16 06:01:41;;;;;;;84.10;33.00;;;;;;;6.99;100.00;100926.12;126295;1099;104248;-78
2024/03/16 06:04:15;;;;;;;89.87;33.63;;;;;;;6.98;100.00;100920.02;125894;1099;104175;-78
2024/03/16 06:06:47;;;;;;;91.20;34.53;;;;;;;6.96;100.00;100925.94;126272;1099;104264;-78
2024/03/16 06:09:18;;;;;;;85.67;34.37;;;;;;;6.95;100.00;100929.34;126338;1099;104184;-78
2024/03/16 06:11:50;;;;;;;87.77;34.70;;;;;;;6.97;100.00;100928.64;126319;1098;102016;-78
2024/03/16 06:14:21;;;;;;;92.53;34.70;;;;;;;7.00;100.00;100930.53;126623;1099;102109;-78
2024/03/16 06:16:53;;;;;;;93.47;34.23;;;;;;;7.03;100.00;100938.54;126292;1098;104277;-78
2024/03/16 06:19:24;;;;;;;86.77;33.70;;;;;;;7.06;100.00;100930.89;126484;1099;104236;-78
2024/03/16 06:21:55;;;;;;;85.37;33.47;;;;;;;7.05;100.00;100936.02;126754;1099;104304;-78
2024/03/16 06:24:26;;;;;;;88.90;33.73;;;;;;;7.02;100.00;100934.12;126607;1099;101775;-78
2024/03/16 06:27:04;;;;;;;90.30;34.03;;;;;;;7.04;100.00;100934.20;126430;1098;104443;-78
2024/03/16 06:29:36;;;;;;;91.07;34.23;;;;;;;7.04;100.00;100931.59;126478;1097;104162;-79
2024/03/16 06:32:08;;;;;;;86.70;33.03;;;;;;;7.10;100.00;100939.77;126255;1099;104341;-78
2024/03/16 06:34:41;;;;;;;82.73;33.00;;;;;;;7.12;100.00;100938.14;126424;1098;104281;-78
2024/03/16 06:37:12;;;;;;;84.53;32.87;;;;;;;7.14;100.00;100946.98;126141;1099;104269;-78
2024/03/16 06:39:44;;;;;;;88.67;33.47;;;;;;;7.16;100.00;100948.84;126125;1099;104676;-78
2024/03/16 06:42:15;;;;;;;81.43;32.10;;;;;;;7.20;100.00;100944.72;126038;1099;102070;-78
2024/03/16 06:44:46;;;;;;;80.67;32.53;;;;;;;7.26;100.00;100947.67;126065;1099;104181;-78
2024/03/16 06:47:17;;;;;;;82.50;32.37;;;;;;;7.32;100.00;100947.09;125827;1099;107009;-78
2024/03/16 06:49:49;;;;;;;77.00;33.60;;;;;;;7.40;100.00;100947.52;125826;1099;102445;-78
2024/03/16 06:52:24;;;;;;;82.00;32.43;;;;;;;7.43;100.00;100945.97;126158;1099;104188;-79
2024/03/16 06:54:55;;;;;;;78.43;33.13;;;;;;;7.49;100.00;100951.53;125984;1099;104239;-78
2024/03/16 06:57:27;;;;;;;73.77;30.40;;;;;;;7.56;100.00;100952.80;126161;1099;104248;-78
2024/03/16 06:59:58;;;;;;;71.07;30.17;;;;;;;7.60;100.00;100948.63;126144;1099;104239;-78
2024/03/16 07:02:29;;;;;;;71.40;31.47;;;;;;;7.61;100.00;100948.71;126010;1099;104188;-79
2024/03/16 07:05:00;;;;;;;77.27;30.73;;;;;;;7.69;100.00;100951.75;125703;1099;104239;-78
2024/03/16 07:07:31;;;;;;;73.30;31.90;;;;;;;7.79;100.00;100955.74;125533;1098;104216;-78
2024/03/16 07:10:05;;;;;;;74.50;30.67;;;;;;;7.85;100.00;100959.61;125846;1098;104246;-79
2024/03/16 07:12:37;;;;;;;70.05;30.90;;;;;;;7.90;100.00;100962.47;125710;1099;104230;-79
2024/03/16 07:15:12;;;;;;;74.43;30.63;;;;;;;7.96;100.00;100964.50;125849;1099;104066;-78
2024/03/16 07:17:44;;;;;;;70.83;31.27;;;;;;;8.04;100.00;100960.56;125162;1099;104249;-79
2024/03/16 07:20:15;;;;;;;68.50;32.00;;;;;;;8.04;100.00;100964.10;125631;1098;104223;-78
2024/03/16 07:22:47;;;;;;;78.33;34.67;;;;;;;8.09;100.00;100972.19;125054;1099;104435;-79
2024/03/16 07:25:18;;;;;;;71.83;34.07;;;;;;;8.10;100.00;100974.88;125443;1099;104386;-79
2024/03/16 07:27:49;;;;;;;79.30;36.43;;;;;;;8.05;100.00;100978.05;125680;1099;102390;-78
2024/03/16 07:30:21;;;;;;;79.43;36.50;;;;;;;8.01;100.00;100974.39;125112;1098;102657;-79
2024/03/16 07:32:52;;;;;;;87.23;39.37;;;;;;;8.02;100.00;100972.66;125523;1098;104251;-79
2024/03/16 07:35:23;;;;;;;83.67;39.43;;;;;;;8.03;100.00;100974.47;125174;1099;102254;-80
2024/03/16 07:37:55;;;;;;;87.00;38.43;;;;;;;8.04;100.00;100971.02;125846;1099;104380;-78
2024/03/16 07:40:28;;;;;;;81.60;36.80;;;;;;;8.09;100.00;100975.69;125905;1099;104188;-79
2024/03/16 07:42:59;;;;;;;86.83;37.80;;;;;;;8.17;100.00;100978.71;125501;1099;104232;-79
2024/03/16 07:45:30;;;;;;;88.53;39.13;;;;;;;8.24;100.00;100978.23;125186;1099;104180;-78
2024/03/16 07:48:01;;;;;;;86.57;36.97;;;;;;;8.27;100.00;100973.16;125917;1099;104248;-79
2024/03/16 07:50:32;;;;;;;86.20;39.23;;;;;;;8.31;100.00;100974.21;125552;1099;104182;-79
2024/03/16 07:53:04;;;;;;;82.17;37.80;;;;;;;8.37;100.00;100977.15;125456;1099;104239;-79
2024/03/16 07:55:35;;;;;;;86.37;39.53;;;;;;;8.42;100.00;100970.43;125213;1099;104222;-79
2024/03/16 07:58:07;;;;;;;86.10;40.97;;;;;;;8.44;100.00;100984.51;125344;1098;104166;-78
2024/03/16 08:00:38;;;;;;;80.93;39.23;;;;;;;8.48;100.00;100982.05;125391;1098;104249;-79
2024/03/16 08:03:09;;;;;;;84.97;39.40;;;;;;;8.48;100.00;100980.36;125152;1099;104189;-79
2024/03/16 08:05:41;;;;;;;85.17;39.90;;;;;;;8.48;100.00;100980.36;125168;1099;104242;-80
2024/03/16 08:08:12;;;;;;;86.00;39.57;;;;;;;8.47;100.00;100981.16;125141;1099;104268;-80
2024/03/16 08:10:43;;;;;;;84.67;41.30;;;;;;;8.48;100.00;100975.13;125661;1099;104504;-79
2024/03/16 08:13:15;;;;;;;85.67;40.13;;;;;;;8.51;100.00;100975.28;125550;1099;104174;-79
2024/03/16 08:15:46;;;;;;;82.57;39.37;;;;;;;8.55;100.00;100977.22;125703;1099;104268;-79
2024/03/16 08:18:17;;;;;;;80.10;37.17;;;;;;;8.63;100.00;100978.53;125617;1099;104201;-78
2024/03/16 08:20:48;;;;;;;78.17;35.93;;;;;;;8.71;100.00;100981.55;125423;1099;104205;-79
2024/03/16 08:23:19;;;;;;;77.80;35.60;;;;;;;8.79;100.00;100987.16;125237;1099;104242;-79
2024/03/16 08:25:51;;;;;;;79.90;38.10;;;;;;;8.86;100.00;100986.63;125096;1099;104261;-79
2024/03/16 08:28:22;;;;;;;79.27;37.57;;;;;;;8.91;100.00;100979.94;125351;1099;104395;-78
2024/03/16 08:30:53;;;;;;;75.47;35.70;;;;;;;8.93;100.00;100983.52;125376;1099;104245;-79
2024/03/16 08:33:24;;;;;;;85.87;38.80;;;;;;;8.90;100.00;100980.74;125541;1099;104217;-78
2024/03/16 08:35:56;;;;;;;80.60;38.40;;;;;;;8.88;100.00;100990.25;125582;1099;104284;-79
2024/03/16 08:38:27;;;;;;;79.23;36.23;;;;;;;8.84;100.00;100988.28;125452;1099;104162;-79
2024/03/16 08:40:58;;;;;;;67.03;34.93;;;;;;;8.83;100.00;100994.33;125304;1099;104315;-79
2024/03/16 08:43:30;;;;;;;65.90;34.30;;;;;;;8.81;100.00;100988.12;124872;1099;104238;-79
2024/03/16 08:46:05;;;;;;;59.47;32.50;;;;;;;8.84;100.00;100990.02;125201;1099;104220;-79
2024/03/16 08:48:37;;;;;;;65.60;33.17;;;;;;;8.87;100.00;100977.08;125231;1099;104261;-79
2024/03/16 08:51:08;;;;;;;66.70;31.10;;;;;;;8.91;100.00;100979.02;125069;1099;104396;-80
2024/03/16 08:53:39;;;;;;;62.53;31.00;;;;;;;8.85;100.00;100984.86;124601;1099;104159;-83
2024/03/16 08:56:11;;;;;;;64.43;29.73;;;;;;;8.78;100.00;100983.63;124934;1099;104483;-79
2024/03/16 08:58:42;;;;;;;63.47;29.90;;;;;;;8.78;100.00;100983.63;125260;1099;104641;-79
2024/03/16 09:01:13;;;;;;;58.90;26.47;;;;;;;8.82;100.00;100995.17;124608;1099;104354;-80
2024/03/16 09:03:46;;;;;;;58.20;26.03;;;;;;;8.79;100.00;100988.05;125042;1099;104517;-79
2024/03/16 09:06:17;;;;;;;54.03;25.20;;;;;;;8.80;100.00;100986.32;124550;1102;104274;-79
2024/03/16 09:08:48;;;;;;;55.20;26.40;;;;;;;8.80;100.00;100981.09;124611;1099;104431;-80
2024/03/16 09:11:20;;;;;;;54.03;25.30;;;;;;;8.80;100.00;100986.32;124485;1098;104258;-80
2024/03/16 09:13:51;;;;;;;56.03;26.80;;;;;;;8.79;100.00;100976.70;124905;1099;104210;-80
2024/03/16 09:16:22;;;;;;;56.97;26.00;;;;;;;8.81;100.00;100981.17;125382;1098;104236;-79
2024/03/16 09:18:54;;;;;;;53.53;26.07;;;;;;;8.86;100.00;100978.78;125046;1099;104363;-80
2024/03/16 09:21:25;;;;;;;58.63;27.90;;;;;;;8.90;100.00;100967.66;125391;1099;104173;-79
2024/03/16 09:23:57;;;;;;;56.03;27.67;;;;;;;8.96;100.00;100975.81;124965;1099;104067;-80
2024/03/16 09:26:28;;;;;;;53.40;24.60;;;;;;;8.99;100.00;100970.73;125009;1099;104262;-80
2024/03/16 09:29:00;;;;;;;58.37;25.97;;;;;;;8.99;100.00;100968.12;125035;1099;104242;-79
2024/03/16 09:31:31;;;;;;;47.60;23.70;;;;;;;9.05;100.00;100970.12;125330;1099;104197;-79
2024/03/16 09:34:03;;;;;;;52.17;24.93;;;;;;;9.08;100.00;100964.14;125443;1099;104233;-79
2024/03/16 09:36:35;;;;;;;51.30;23.47;;;;;;;9.11;100.00;100961.68;125136;1099;104169;-79
2024/03/16 09:39:10;;;;;;;56.63;26.20;;;;;;;9.15;100.00;100966.25;125399;1098;104215;-79
2024/03/16 09:41:46;;;;;;;54.57;26.13;;;;;;;9.17;100.00;100972.45;125099;1098;104811;-79
2024/03/16 09:44:17;;;;;;;49.67;23.67;;;;;;;9.21;100.00;100966.55;124928;1099;104479;-79
2024/03/16 09:46:50;;;;;;;45.90;21.17;;;;;;;9.26;100.00;100972.91;124718;1099;104366;-80
2024/03/16 09:49:22;;;;;;;45.63;21.43;;;;;;;9.28;100.00;100968.63;124664;1098;104264;-80
2024/03/16 09:51:55;;;;;;;46.33;21.47;;;;;;;9.27;100.00;100969.47;124667;1099;104264;-79
2024/03/16 09:54:28;;;;;;;43.10;19.93;;;;;;;9.28;100.00;100965.13;125142;1099;104235;-80
2024/03/16 09:57:00;;;;;;;44.93;21.50;;;;;;;9.31;100.00;100967.89;124909;1099;104255;-79
2024/03/16 09:59:34;;;;;;;44.70;19.92;;;;;;;9.32;100.00;100962.72;124715;1099;104235;-79
2024/03/16 10:02:15;;;;;;;45.93;20.50;;;;;;;9.37;100.00;100964.67;124749;1099;104711;-79
2024/03/16 10:04:46;;;;;;;47.17;21.57;;;;;;;9.41;100.00;100966.59;124657;1099;104714;-79
2024/03/16 10:07:18;;;;;;;47.27;20.83;;;;;;;9.43;100.00;100963.23;124850;1099;104175;-79
2024/03/16 10:09:56;;;;;;;43.60;20.33;;;;;;;9.46;100.00;100963.38;124613;1099;104312;-79
2024/03/16 10:12:27;;;;;;;47.67;21.23;;;;;;;9.46;100.00;100965.12;124623;1099;104245;-80
2024/03/16 10:15:15;;;;;;;49.23;21.67;;;;;;;9.53;100.00;100959.33;124803;1099;104312;-79
2024/03/16 10:17:46;;;;;;;44.87;20.97;;;;;;;9.59;100.00;100962.23;127359;1099;102076;-79
2024/03/16 10:20:18;;;;;;;48.10;20.57;;;;;;;9.67;100.00;100963.48;124836;1099;104351;-80
2024/03/16 10:22:50;;;;;;;45.60;21.03;;;;;;;9.84;100.00;100964.27;124824;1098;104479;-79
2024/03/16 10:25:24;;;;;;;45.83;20.20;;;;;;;9.98;100.00;100961.39;124822;1099;104258;-79
2024/03/16 10:27:57;;;;;;;44.17;20.43;;;;;;;10.13;100.00;100964.70;124666;1099;104271;-79
2024/03/16 10:30:29;;;;;;;45.00;20.50;;;;;;;10.24;100.00;100959.94;124729;1099;104175;-80
2024/03/16 10:33:01;;;;;;;45.90;21.30;;;;;;;10.24;100.00;100960.83;125587;1099;104891;-79
2024/03/16 10:35:34;;;;;;;42.30;19.77;;;;;;;10.31;100.00;100947.98;124739;1099;104312;-79
2024/03/16 10:38:11;;;;;;;44.65;20.10;;;;;;;10.39;100.00;100950.16;124664;1099;104235;-79
2024/03/16 10:40:42;;;;;;;40.77;19.03;;;;;;;10.47;100.00;100949.58;124890;1098;104226;-79
2024/03/16 10:43:15;;;;;;;41.13;18.83;;;;;;;10.58;100.00;100945.67;124748;1099;104216;-79
2024/03/16 10:45:47;;;;;;;41.70;19.03;;;;;;;10.73;100.00;100945.44;124330;1099;104194;-81
2024/03/16 10:48:19;;;;;;;41.87;19.63;;;;;;;10.76;100.00;100945.58;124675;1099;104413;-79
2024/03/16 10:50:51;;;;;;;41.73;18.93;;;;;;;10.76;100.00;100945.58;124921;1099;104238;-79
2024/03/16 10:53:25;;;;;;;43.30;19.83;;;;;;;10.77;100.00;100945.64;125178;1099;104646;-79
2024/03/16 10:55:56;;;;;;;41.30;19.30;;;;;;;10.88;100.00;100946.09;124963;1099;104248;-79
2024/03/16 10:58:29;;;;;;;41.77;19.20;;;;;;;11.01;100.00;100941.34;124356;1099;104316;-79
2024/03/16 11:01:07;;;;;;;42.27;18.03;;;;;;;11.15;100.00;100946.30;124217;1099;104300;-80
2024/03/16 11:03:42;;;;;;;38.13;18.33;;;;;;;11.22;100.00;100936.05;124357;1099;104291;-78
2024/03/16 11:06:21;;;;;;;46.20;18.67;;;;;;;11.26;100.00;100937.97;124230;1099;104360;-79
2024/03/16 11:08:53;;;;;;;41.97;19.10;;;;;;;11.38;100.00;100938.46;124348;1099;104238;-79
2024/03/16 11:11:30;;;;;;;42.87;19.07;;;;;;;11.51;100.00;100930.23;124317;1099;104245;-80
2024/03/16 11:14:07;;;;;;;39.87;19.00;;;;;;;11.64;100.00;100928.05;124363;1099;104296;-79
2024/03/16 11:16:46;;;;;;;47.40;19.63;;;;;;;11.68;100.00;100927.34;124286;1099;104368;-80